RA73852 UUMD-UUML
Flight info
| Callsign | RA73852 |
|---|---|
| Flight time | 0h 9m |
| Altitude | 2000 |
| Route | ALONG RIVER OKA/ALONG HIGHWAY E30 |
| Aircraft | C172/L-S/L |
Departure
| Time | 2026-04-29 12:50 |
|---|---|
| Airport | Selnikovo Airfield (UUMD) |
Arrival
| Time | 2026-04-29 13:00 |
|---|---|
| Airport | Severka Airfield (UUML) |
| Time | Latitude | Longitude | Altitude | Speed | Heading |
|---|---|---|---|---|---|
| 2026-04-29 12:41 | 55.13411 | 39.14811 | 360 ft | 0 kts | 82° |
| 2026-04-29 12:41 | 55.13411 | 39.14814 | 361 ft | 0 kts | 93° |
| 2026-04-29 12:41 | 55.13411 | 39.14817 | 360 ft | 0 kts | 101° |
| 2026-04-29 12:47 | 55.13411 | 39.14820 | 360 ft | 3 kts | 104° |
| 2026-04-29 12:47 | 55.13361 | 39.14830 | 361 ft | 11 kts | 202° |
| 2026-04-29 12:47 | 55.13324 | 39.14824 | 361 ft | 2 kts | 198° |
| 2026-04-29 12:48 | 55.13323 | 39.14823 | 360 ft | 0 kts | 201° |
| 2026-04-29 12:48 | 55.13322 | 39.14822 | 361 ft | 2 kts | 201° |
| 2026-04-29 12:49 | 55.13131 | 39.14674 | 361 ft | 61 kts | 207° |
| 2026-04-29 12:49 | 55.12672 | 39.14396 | 537 ft | 74 kts | 196° |
| 2026-04-29 12:49 | 55.12196 | 39.14227 | 662 ft | 68 kts | 195° |
| 2026-04-29 12:49 | 55.11744 | 39.14045 | 746 ft | 67 kts | 197° |
| 2026-04-29 12:50 | 55.11449 | 39.14471 | 874 ft | 64 kts | 55° |
| 2026-04-29 12:50 | 55.11811 | 39.14563 | 1003 ft | 69 kts | 315° |
| 2026-04-29 12:50 | 55.11998 | 39.13900 | 1051 ft | 66 kts | 260° |
| 2026-04-29 12:50 | 55.11720 | 39.13269 | 1064 ft | 65 kts | 227° |
| 2026-04-29 12:51 | 55.11354 | 39.12766 | 1015 ft | 70 kts | 223° |
| 2026-04-29 12:51 | 55.10986 | 39.12194 | 928 ft | 76 kts | 223° |
| 2026-04-29 12:51 | 55.10621 | 39.11613 | 921 ft | 64 kts | 240° |
| 2026-04-29 12:51 | 55.10346 | 39.10965 | 859 ft | 66 kts | 248° |
| 2026-04-29 12:52 | 55.10140 | 39.10263 | 835 ft | 62 kts | 256° |
| 2026-04-29 12:52 | 55.10054 | 39.09473 | 796 ft | 70 kts | 264° |
| 2026-04-29 12:52 | 55.09982 | 39.08658 | 821 ft | 66 kts | 269° |
| 2026-04-29 12:52 | 55.09949 | 39.07920 | 864 ft | 61 kts | 271° |
| 2026-04-29 12:53 | 55.09906 | 39.07112 | 936 ft | 72 kts | 270° |
| 2026-04-29 12:53 | 55.09830 | 39.06187 | 1017 ft | 78 kts | 265° |
| 2026-04-29 12:53 | 55.09707 | 39.05230 | 1101 ft | 82 kts | 262° |
| 2026-04-29 12:53 | 55.09483 | 39.04269 | 1194 ft | 84 kts | 250° |
| 2026-04-29 12:54 | 55.09228 | 39.03370 | 1314 ft | 83 kts | 246° |
| 2026-04-29 12:54 | 55.08989 | 39.02423 | 1387 ft | 84 kts | 255° |
| 2026-04-29 12:54 | 55.08771 | 39.01482 | 1461 ft | 86 kts | 256° |
| 2026-04-29 12:54 | 55.08634 | 39.00374 | 1524 ft | 98 kts | 265° |
| 2026-04-29 12:55 | 55.08501 | 38.99180 | 1597 ft | 104 kts | 263° |
| 2026-04-29 12:55 | 55.08400 | 38.97943 | 1695 ft | 103 kts | 272° |
| 2026-04-29 12:55 | 55.08403 | 38.96670 | 1726 ft | 106 kts | 277° |
| 2026-04-29 12:55 | 55.08504 | 38.95383 | 1707 ft | 110 kts | 283° |
| 2026-04-29 12:56 | 55.08675 | 38.94051 | 1603 ft | 114 kts | 291° |
| 2026-04-29 12:56 | 55.09015 | 38.92834 | 1651 ft | 107 kts | 303° |
| 2026-04-29 12:56 | 55.09418 | 38.91790 | 1733 ft | 103 kts | 306° |
| 2026-04-29 12:56 | 55.09811 | 38.90738 | 1783 ft | 104 kts | 303° |
| 2026-04-29 12:57 | 55.10186 | 38.89649 | 1834 ft | 104 kts | 301° |
| 2026-04-29 12:57 | 55.10528 | 38.88495 | 1763 ft | 111 kts | 297° |
| 2026-04-29 12:57 | 55.10836 | 38.87244 | 1738 ft | 112 kts | 294° |
| 2026-04-29 12:57 | 55.11098 | 38.85947 | 1726 ft | 112 kts | 291° |
| 2026-04-29 12:58 | 55.11345 | 38.84653 | 1670 ft | 108 kts | 295° |
| 2026-04-29 12:58 | 55.11581 | 38.83522 | 1337 ft | 96 kts | 282° |
| 2026-04-29 12:58 | 55.11579 | 38.82395 | 983 ft | 95 kts | 275° |
| 2026-04-29 12:58 | 55.11712 | 38.81442 | 932 ft | 70 kts | 308° |
| 2026-04-29 12:59 | 55.12122 | 38.81174 | 860 ft | 64 kts | 5° |
| 2026-04-29 12:59 | 55.12408 | 38.81688 | 814 ft | 68 kts | 80° |
| 2026-04-29 12:59 | 55.12100 | 38.82331 | 706 ft | 75 kts | 167° |
| 2026-04-29 12:59 | 55.11720 | 38.82024 | 645 ft | 56 kts | 272° |
| 2026-04-29 13:00 | 55.11921 | 38.81584 | 656 ft | 48 kts | 341° |
| 2026-04-29 13:00 | 55.12201 | 38.81924 | 614 ft | 67 kts | 77° |
| 2026-04-29 13:00 | 55.11871 | 38.82273 | 597 ft | 66 kts | 231° |
| 2026-04-29 13:00 | 55.12012 | 38.81793 | 612 ft | 57 kts | 346° |
| 2026-04-29 13:01 | 55.12201 | 38.82344 | 603 ft | 76 kts | 118° |
| 2026-04-29 13:01 | 55.11741 | 38.82458 | 653 ft | 64 kts | 220° |
| 2026-04-29 13:01 | 55.11809 | 38.81948 | 662 ft | 56 kts | 355° |
| 2026-04-29 13:01 | 55.12127 | 38.81697 | 694 ft | 63 kts | 284° |
| 2026-04-29 13:02 | 55.12236 | 38.80920 | 780 ft | 70 kts | 288° |
| 2026-04-29 13:02 | 55.12416 | 38.80094 | 858 ft | 72 kts | 296° |
| 2026-04-29 13:02 | 55.12527 | 38.79201 | 797 ft | 89 kts | 261° |
| 2026-04-29 13:02 | 55.12749 | 38.78531 | 598 ft | 71 kts | 1° |
| 2026-04-29 13:03 | 55.13119 | 38.78213 | 600 ft | 70 kts | 300° |
| 2026-04-29 13:03 | 55.13350 | 38.77468 | 819 ft | 72 kts | 297° |
| 2026-04-29 13:03 | 55.13543 | 38.76625 | 980 ft | 78 kts | 291° |
| 2026-04-29 13:03 | 55.13722 | 38.75698 | 1115 ft | 81 kts | 291° |
| 2026-04-29 13:04 | 55.13960 | 38.74756 | 1187 ft | 86 kts | 297° |
| 2026-04-29 13:04 | 55.14222 | 38.73822 | 1335 ft | 89 kts | 297° |
| 2026-04-29 13:04 | 55.14467 | 38.72794 | 1481 ft | 94 kts | 294° |
| 2026-04-29 13:04 | 55.14700 | 38.71697 | 1567 ft | 100 kts | 293° |
| 2026-04-29 13:05 | 55.14993 | 38.70597 | 1633 ft | 102 kts | 301° |
| 2026-04-29 13:05 | 55.15369 | 38.69509 | 1626 ft | 107 kts | 305° |
| 2026-04-29 13:05 | 55.15897 | 38.68544 | 1522 ft | 113 kts | 320° |
| 2026-04-29 13:05 | 55.16532 | 38.67642 | 1276 ft | 117 kts | 324° |
| 2026-04-29 13:06 | 55.17128 | 38.67104 | 1120 ft | 85 kts | 346° |
| 2026-04-29 13:06 | 55.17713 | 38.67074 | 970 ft | 80 kts | 360° |
| 2026-04-29 13:06 | 55.18225 | 38.67097 | 940 ft | 73 kts | 353° |
| 2026-04-29 13:06 | 55.18736 | 38.66907 | 862 ft | 74 kts | 338° |
| 2026-04-29 13:07 | 55.19204 | 38.66607 | 863 ft | 69 kts | 337° |
| 2026-04-29 13:07 | 55.19657 | 38.66385 | 852 ft | 67 kts | 343° |
| 2026-04-29 13:07 | 55.20139 | 38.66086 | 786 ft | 69 kts | 327° |
| 2026-04-29 13:07 | 55.20327 | 38.65359 | 792 ft | 71 kts | 268° |
| 2026-04-29 13:08 | 55.19986 | 38.64775 | 800 ft | 80 kts | 191° |
| 2026-04-29 13:08 | 55.19540 | 38.65267 | 773 ft | 81 kts | 103° |
| 2026-04-29 13:08 | 55.19748 | 38.66032 | 737 ft | 75 kts | 23° |
| 2026-04-29 13:08 | 55.20216 | 38.66328 | 797 ft | 63 kts | 346° |
| 2026-04-29 13:09 | 55.20375 | 38.65693 | 802 ft | 72 kts | 261° |
| 2026-04-29 13:09 | 55.19962 | 38.65311 | 819 ft | 83 kts | 144° |
| 2026-04-29 13:09 | 55.19914 | 38.66058 | 735 ft | 58 kts | 36° |
| 2026-04-29 13:09 | 55.20157 | 38.66576 | 663 ft | 53 kts | 43° |
| 2026-04-29 13:10 | 55.20358 | 38.67106 | 546 ft | 52 kts | 47° |
| 2026-04-29 13:10 | 55.20546 | 38.67618 | 428 ft | 41 kts | 53° |
| 2026-04-29 13:10 | 55.20612 | 38.67786 | 431 ft | 4 kts | 266° |
| 2026-04-29 13:10 | 55.20583 | 38.67718 | 430 ft | 8 kts | 266° |
| 2026-04-29 13:11 | 55.20619 | 38.67673 | 429 ft | 5 kts | 328° |
| 2026-04-29 13:11 | 55.20658 | 38.67664 | 430 ft | 0 kts | 335° |